Time;durP1;ratioP1;P1;durP2;ratioP2;P2;SDS_P1;SDS_P2;PMS_P1;PMS_P2;Temp;Humidity;BMP_temperature;BMP_pressure;BME280_temperature;BME280_humidity;BME280_pressure;Samples;Min_cycle;Max_cycle;Signal;HPM_P1;HPM_P2
2023/08/27 00:00:42;;;;;;;;;;;;;;;27.41;60.93;100481.00;7402060;19;1462;-52
2023/08/27 00:03:10;;;;;;;;;;;;;;;27.38;60.99;100472.19;7401652;19;1708;-52
2023/08/27 00:05:46;;;;;;;;;;;;;;;27.38;61.01;100480.34;7401385;19;1400;-52
2023/08/27 00:08:14;;;;;;;;;;;;;;;27.41;61.13;100475.56;7401231;19;1847;-52
2023/08/27 00:10:42;;;;;;;;;;;;;;;27.42;61.22;100475.38;7402450;19;1035;-51
2023/08/27 00:13:11;;;;;;;;;;;;;;;27.45;61.13;100485.81;7401988;19;1463;-53
2023/08/27 00:15:46;;;;;;;;;;;;;;;27.42;61.09;100488.94;7400841;19;1930;-52
2023/08/27 00:18:14;;;;;;;;;;;;;;;27.37;61.01;100483.25;7401534;19;1869;-52
2023/08/27 00:20:48;;;;;;;;;;;;;;;27.35;61.06;100479.91;7400372;19;2217;-52
2023/08/27 00:23:16;;;;;;;;;;;;;;;27.44;61.22;100477.88;7401755;19;1356;-52
2023/08/27 00:25:45;;;;;;;;;;;;;;;27.38;61.14;100476.81;7400701;19;1297;-52
2023/08/27 00:28:14;;;;;;;;;;;;;;;27.35;61.19;100459.00;7399967;19;1852;-52
2023/08/27 00:30:42;;;;;;;;;;;;;;;27.37;61.31;100465.06;7399491;19;1345;-51
2023/08/27 00:33:10;;;;;;;;;;;;;;;27.38;61.21;100468.66;7399550;19;1427;-51
2023/08/27 00:35:42;;;;;;;;;;;;;;;27.35;61.12;100466.31;7399268;19;1305;-50
2023/08/27 00:38:12;;;;;;;;;;;;;;;27.34;61.37;100456.50;7400431;19;1395;-51
2023/08/27 00:40:41;;;;;;;;;;;;;;;27.37;61.00;100459.66;7400364;19;1360;-51
2023/08/27 00:43:09;;;;;;;;;;;;;;;27.34;61.09;100459.22;7400794;19;1815;-51
2023/08/27 00:45:37;;;;;;;;;;;;;;;27.36;61.15;100454.44;7400965;19;1924;-52
2023/08/27 00:48:06;;;;;;;;;;;;;;;27.35;61.34;100459.00;7401122;19;1834;-53
2023/08/27 00:50:35;;;;;;;;;;;;;;;27.33;61.28;100450.22;7398603;19;1856;-52
2023/08/27 00:53:03;;;;;;;;;;;;;;;27.32;61.10;100451.28;7399899;19;1596;-52
2023/08/27 00:55:34;;;;;;;;;;;;;;;27.36;61.15;100452.56;7399806;19;1495;-52
2023/08/27 00:58:03;;;;;;;;;;;;;;;27.34;61.13;100454.63;7400002;19;2252;-52
2023/08/27 01:00:32;;;;;;;;;;;;;;;27.34;61.02;100448.38;7399992;19;1697;-52
2023/08/27 01:03:00;;;;;;;;;;;;;;;27.30;61.39;100447.91;7399418;19;1470;-51
2023/08/27 01:05:28;;;;;;;;;;;;;;;27.29;61.21;100445.41;7399885;19;1759;-51
2023/08/27 01:08:00;;;;;;;;;;;;;;;27.31;61.33;100451.47;7400854;19;1020;-52
2023/08/27 01:10:34;;;;;;;;;;;;;;;27.39;61.30;100456.75;7398380;19;1843;-51
2023/08/27 01:13:07;;;;;;;;;;;;;;;27.34;61.01;100462.78;7399505;19;2056;-52
2023/08/27 01:15:35;;;;;;;;;;;;;;;27.33;61.40;100454.81;7398530;19;1469;-52
2023/08/27 01:18:05;;;;;;;;;;;;;;;27.35;61.28;100467.16;7398680;19;1605;-52
2023/08/27 01:20:34;;;;;;;;;;;;;;;27.34;61.39;100453.81;7399557;19;1933;-52
2023/08/27 01:23:04;;;;;;;;;;;;;;;27.34;61.27;100456.50;7398866;19;1340;-52
2023/08/27 01:25:35;;;;;;;;;;;;;;;27.34;61.20;100454.63;7398803;19;1479;-53
2023/08/27 01:28:09;;;;;;;;;;;;;;;27.30;61.19;100455.25;7397466;19;1325;-51
2023/08/27 01:30:42;;;;;;;;;;;;;;;27.27;61.47;100453.72;7396096;19;1852;-51
2023/08/27 01:33:13;;;;;;;;;;;;;;;27.24;61.54;100462.28;7397575;19;1357;-51
2023/08/27 01:35:42;;;;;;;;;;;;;;;27.27;61.55;100456.44;7397054;19;1392;-51
2023/08/27 01:38:13;;;;;;;;;;;;;;;27.30;61.44;100464.22;7398435;19;1729;-51
2023/08/27 01:40:43;;;;;;;;;;;;;;;27.31;61.43;100459.63;7398471;19;1384;-50
2023/08/27 01:43:11;;;;;;;;;;;;;;;27.29;61.27;100464.41;7399399;19;1671;-50
2023/08/27 01:45:39;;;;;;;;;;;;;;;27.34;61.49;100459.22;7398315;19;1471;-51
2023/08/27 01:48:08;;;;;;;;;;;;;;;27.34;61.30;100479.06;7399203;19;1015;-51
2023/08/27 01:50:36;;;;;;;;;;;;;;;27.33;61.30;100477.38;7396779;19;1842;-51
2023/08/27 01:53:05;;;;;;;;;;;;;;;27.29;61.43;100469.84;7398428;19;1886;-51
2023/08/27 01:55:36;;;;;;;;;;;;;;;27.29;61.37;100467.13;7397325;19;1440;-51
2023/08/27 01:58:04;;;;;;;;;;;;;;;27.28;61.44;100477.16;7398510;19;1424;-51
2023/08/27 02:00:32;;;;;;;;;;;;;;;27.21;61.55;100468.06;7397659;19;1748;-51
2023/08/27 02:03:01;;;;;;;;;;;;;;;27.23;61.65;100492.31;7397214;19;1490;-51
2023/08/27 02:05:29;;;;;;;;;;;;;;;27.26;61.42;100487.38;7397697;19;1681;-51
2023/08/27 02:07:57;;;;;;;;;;;;;;;27.25;61.33;100491.09;7399097;19;1002;-50
2023/08/27 02:10:26;;;;;;;;;;;;;;;27.29;61.52;100503.25;7396348;19;1848;-50
2023/08/27 02:12:57;;;;;;;;;;;;;;;27.25;61.40;100493.81;7397993;19;1498;-51
2023/08/27 02:15:25;;;;;;;;;;;;;;;27.28;61.54;100501.59;7395912;19;1511;-51
2023/08/27 02:17:53;;;;;;;;;;;;;;;27.25;61.65;100492.97;7397944;19;1740;-51
2023/08/27 02:20:21;;;;;;;;;;;;;;;27.24;61.55;100497.59;7397210;19;1922;-50
2023/08/27 02:22:50;;;;;;;;;;;;;;;27.22;61.55;100485.19;7396217;19;1470;-50
2023/08/27 02:25:18;;;;;;;;;;;;;;;27.26;61.59;100492.78;7396034;19;1798;-50
2023/08/27 02:27:46;;;;;;;;;;;;;;;27.20;61.71;100485.41;7397725;19;1420;-51
2023/08/27 02:30:18;;;;;;;;;;;;;;;27.20;61.47;100488.13;7396657;19;1871;-50
2023/08/27 02:32:46;;;;;;;;;;;;;;;27.21;61.49;100489.78;7396865;19;1618;-51
2023/08/27 02:35:14;;;;;;;;;;;;;;;27.19;61.47;100486.44;7394039;19;2021;-50
2023/08/27 02:37:42;;;;;;;;;;;;;;;27.23;61.66;100487.72;7397526;19;1740;-51
2023/08/27 02:40:12;;;;;;;;;;;;;;;27.20;61.69;100482.69;7398107;19;1022;-51
2023/08/27 02:42:41;;;;;;;;;;;;;;;27.24;61.57;100480.44;7397722;19;2026;-50
2023/08/27 02:45:10;;;;;;;;;;;;;;;27.20;61.33;100477.25;7396842;19;1854;-51
2023/08/27 02:47:41;;;;;;;;;;;;;;;27.15;61.70;100477.84;7396933;19;1787;-50
2023/08/27 02:50:10;;;;;;;;;;;;;;;27.23;61.43;100486.88;7395552;19;2317;-51
2023/08/27 02:52:38;;;;;;;;;;;;;;;27.20;61.76;100482.69;7396642;19;1794;-51
2023/08/27 02:55:07;;;;;;;;;;;;;;;27.21;61.37;100492.50;7396583;19;1466;-51
2023/08/27 02:57:36;;;;;;;;;;;;;;;27.21;61.47;100484.34;7395620;19;1791;-51
2023/08/27 03:00:05;;;;;;;;;;;;;;;27.21;61.43;100484.34;7395009;19;1466;-51
2023/08/27 03:02:33;;;;;;;;;;;;;;;27.24;61.41;100478.59;7395099;19;1376;-51
2023/08/27 03:05:04;;;;;;;;;;;;;;;27.21;61.46;100476.22;7397435;19;1121;-51
2023/08/27 03:07:32;;;;;;;;;;;;;;;27.22;61.52;100482.47;7396458;19;1922;-50
2023/08/27 03:10:01;;;;;;;;;;;;;;;27.24;61.51;100494.88;7395467;19;1822;-50
2023/08/27 03:12:29;;;;;;;;;;;;;;;27.19;61.46;100481.84;7396129;19;1679;-51
2023/08/27 03:14:58;;;;;;;;;;;;;;;27.21;61.69;100487.06;7403434;19;1462;-51
2023/08/27 03:17:26;;;;;;;;;;;;;;;27.20;61.39;100488.13;7403213;19;1774;-51
2023/08/27 03:19:54;;;;;;;;;;;;;;;27.22;61.69;100475.19;7402582;19;1478;-51
2023/08/27 03:22:26;;;;;;;;;;;;;;;27.21;61.70;100488.97;7401922;19;1336;-51
2023/08/27 03:24:54;;;;;;;;;;;;;;;27.23;61.43;100482.28;7404107;19;1752;-51
2023/08/27 03:27:22;;;;;;;;;;;;;;;27.20;61.64;100477.25;7402827;19;1831;-50
2023/08/27 03:29:51;;;;;;;;;;;;;;;27.19;61.52;100498.13;7401573;19;1842;-51
2023/08/27 03:32:19;;;;;;;;;;;;;;;27.17;61.75;100488.50;7402834;19;1986;-51
2023/08/27 03:34:48;;;;;;;;;;;;;;;27.14;61.43;100489.75;7403824;19;1038;-51
2023/08/27 03:37:16;;;;;;;;;;;;;;;27.21;61.60;100489.78;7403219;19;1912;-51
2023/08/27 03:39:47;;;;;;;;;;;;;;;27.14;61.44;100489.75;7402609;19;2230;-50
2023/08/27 03:42:15;;;;;;;;;;;;;;;27.16;61.46;100489.56;7402675;19;1924;-51
2023/08/27 03:44:43;;;;;;;;;;;;;;;27.15;61.67;100491.41;7402498;19;1450;-50
2023/08/27 03:47:12;;;;;;;;;;;;;;;27.14;61.68;100483.50;7402708;19;1697;-51
2023/08/27 03:49:40;;;;;;;;;;;;;;;27.14;61.55;100494.34;7400719;19;1873;-51
2023/08/27 03:52:08;;;;;;;;;;;;;;;27.12;61.64;100501.84;7400988;19;1376;-67
2023/08/27 03:54:37;;;;;;;;;;;;;;;27.12;61.62;100507.28;7401325;19;1916;-52
2023/08/27 03:57:08;;;;;;;;;;;;;;;27.14;61.55;100499.78;7402425;19;1371;-51
2023/08/27 03:59:36;;;;;;;;;;;;;;;27.15;61.69;100504.16;7401897;19;1317;-51
2023/08/27 04:02:05;;;;;;;;;;;;;;;27.15;61.74;100506.88;7401872;19;1728;-50
2023/08/27 04:04:33;;;;;;;;;;;;;;;27.13;61.71;100507.06;7403635;19;964;-52
2023/08/27 04:07:02;;;;;;;;;;;;;;;27.13;61.62;100508.94;7401097;19;1764;-52
2023/08/27 04:09:30;;;;;;;;;;;;;;;27.18;61.54;100511.91;7400824;19;1857;-51
2023/08/27 04:11:58;;;;;;;;;;;;;;;27.19;61.33;100508.16;7400333;19;1428;-52
2023/08/27 04:14:29;;;;;;;;;;;;;;;27.21;61.36;100508.78;7400184;19;1451;-51
2023/08/27 04:16:57;;;;;;;;;;;;;;;27.50;60.54;100515.94;7399461;19;1317;-50
2023/08/27 04:19:26;;;;;;;;;;;;;;;28.30;58.29;100505.53;7401515;19;1462;-52
2023/08/27 04:21:54;;;;;;;;;;;;;;;28.92;56.80;100517.19;7401628;19;1720;-52
2023/08/27 04:24:22;;;;;;;;;;;;;;;29.17;55.85;100511.19;7401807;19;1679;-53
2023/08/27 04:26:51;;;;;;;;;;;;;;;28.80;56.92;100516.16;7398985;19;1459;-51
2023/08/27 04:29:19;;;;;;;;;;;;;;;28.03;59.02;100514.59;7402880;19;1865;-52
2023/08/27 04:31:50;;;;;;;;;;;;;;;27.50;60.47;100521.38;7400780;19;1947;-51
2023/08/27 04:34:18;;;;;;;;;;;;;;;27.27;61.03;100524.31;7400661;19;1816;-51
2023/08/27 04:36:46;;;;;;;;;;;;;;;27.21;61.49;100532.38;7400232;19;1858;-50
2023/08/27 04:39:16;;;;;;;;;;;;;;;27.17;61.38;100526.50;7401055;19;1795;-52
2023/08/27 04:41:44;;;;;;;;;;;;;;;27.35;60.77;100518.75;7399991;19;1699;-52
2023/08/27 04:44:12;;;;;;;;;;;;;;;28.09;59.01;100528.25;7399643;19;1695;-51
2023/08/27 04:46:40;;;;;;;;;;;;;;;28.31;58.43;100522.66;7399676;19;1724;-51
2023/08/27 04:49:12;;;;;;;;;;;;;;;28.17;58.74;100533.50;7398409;19;1439;-51
2023/08/27 04:51:41;;;;;;;;;;;;;;;27.83;59.50;100530.78;7398485;19;1845;-52
2023/08/27 04:54:09;;;;;;;;;;;;;;;27.59;60.34;100535.63;7400556;19;1704;-52
2023/08/27 04:56:37;;;;;;;;;;;;;;;27.45;60.76;100528.44;7399685;19;1794;-52
2023/08/27 04:59:06;;;;;;;;;;;;;;;27.39;60.94;100535.50;7400239;19;1714;-52
2023/08/27 05:01:34;;;;;;;;;;;;;;;27.38;61.01;100537.38;7400650;19;1004;-51
2023/08/27 05:04:02;;;;;;;;;;;;;;;27.42;60.98;100534.28;7401494;19;1914;-53
2023/08/27 05:06:33;;;;;;;;;;;;;;;27.41;60.93;100544.28;7397684;19;1879;-50
2023/08/27 05:09:01;;;;;;;;;;;;;;;27.48;60.64;100545.19;7398233;19;1715;-53
2023/08/27 05:11:30;;;;;;;;;;;;;;;27.49;60.61;100529.72;7397846;19;1835;-50
2023/08/27 05:13:58;;;;;;;;;;;;;;;27.48;60.47;100534.31;7399640;19;1353;-52
2023/08/27 05:16:26;;;;;;;;;;;;;;;27.49;60.45;100535.16;7397692;19;1712;-51
2023/08/27 05:18:54;;;;;;;;;;;;;;;27.53;60.74;100537.25;7400430;19;1966;-51
2023/08/27 05:21:23;;;;;;;;;;;;;;;27.55;60.28;100542.50;7400445;19;1004;-52
2023/08/27 05:23:54;;;;;;;;;;;;;;;27.52;60.58;100535.59;7400272;19;1866;-52
2023/08/27 05:26:22;;;;;;;;;;;;;;;27.53;60.67;100547.28;7399323;19;1874;-51
2023/08/27 05:28:51;;;;;;;;;;;;;;;27.54;60.64;100538.97;7398876;19;1818;-51
2023/08/27 05:31:19;;;;;;;;;;;;;;;27.53;60.67;100536.44;7397991;19;1900;-50
2023/08/27 05:33:48;;;;;;;;;;;;;;;27.53;60.31;100542.69;7397470;19;1403;-50
2023/08/27 05:36:16;;;;;;;;;;;;;;;27.58;60.59;100534.81;7396784;19;1681;-52
2023/08/27 05:38:45;;;;;;;;;;;;;;;27.63;60.34;100531.47;7398821;19;1719;-52
2023/08/27 05:41:15;;;;;;;;;;;;;;;27.68;60.06;100528.19;7398400;19;1392;-51
2023/08/27 05:43:44;;;;;;;;;;;;;;;27.70;59.94;100531.53;7399467;19;1854;-50
2023/08/27 05:46:12;;;;;;;;;;;;;;;27.72;60.15;100519.44;7398662;19;1724;-52
2023/08/27 05:48:41;;;;;;;;;;;;;;;27.80;59.96;100523.88;7399185;19;1855;-51
2023/08/27 05:51:09;;;;;;;;;;;;;;;27.76;59.75;100523.44;7397427;19;1851;-52
2023/08/27 05:53:38;;;;;;;;;;;;;;;27.77;59.85;100533.28;7398072;19;1874;-51
2023/08/27 05:56:06;;;;;;;;;;;;;;;27.74;60.11;100524.66;7398146;19;1519;-50
2023/08/27 05:58:37;;;;;;;;;;;;;;;27.77;59.96;100521.53;7398360;19;1410;-51
2023/08/27 06:01:05;;;;;;;;;;;;;;;27.78;59.98;100523.22;7397616;19;1428;-52
2023/08/27 06:03:34;;;;;;;;;;;;;;;27.74;60.10;100533.66;7397751;19;1731;-52
2023/08/27 06:06:02;;;;;;;;;;;;;;;27.77;59.81;100516.09;7397684;19;1689;-51
2023/08/27 06:08:30;;;;;;;;;;;;;;;27.76;59.82;100509.84;7397218;19;1395;-51
2023/08/27 06:10:59;;;;;;;;;;;;;;;27.77;60.02;100516.97;7397211;19;1851;-51
2023/08/27 06:13:27;;;;;;;;;;;;;;;27.81;59.88;100521.97;7398500;19;999;-51
2023/08/27 06:15:58;;;;;;;;;;;;;;;27.74;60.01;100517.34;7398469;19;1260;-51
2023/08/27 06:18:26;;;;;;;;;;;;;;;27.29;60.01;100438.09;7398103;19;1530;-52
2023/08/27 06:20:55;;;;;;;;;;;;;;;27.85;59.65;100539.56;7398204;19;1811;-51
2023/08/27 06:23:24;;;;;;;;;;;;;;;27.83;59.71;100528.06;7397318;19;1519;-51
2023/08/27 06:25:52;;;;;;;;;;;;;;;27.86;59.71;100527.66;7397659;19;1329;-51
2023/08/27 06:28:21;;;;;;;;;;;;;;;27.87;59.86;100523.91;7397424;19;1668;-51
2023/08/27 06:30:49;;;;;;;;;;;;;;;27.85;59.94;100528.69;7395832;19;1967;-51
2023/08/27 06:33:20;;;;;;;;;;;;;;;27.89;59.61;100513.69;7396554;19;1734;-52
2023/08/27 06:35:48;;;;;;;;;;;;;;;27.83;59.90;100525.34;7396375;19;1412;-52
2023/08/27 06:38:17;;;;;;;;;;;;;;;27.83;59.84;100515.31;7397047;19;1359;-52
2023/08/27 06:40:45;;;;;;;;;;;;;;;27.91;59.80;100515.19;7396954;19;1466;-51
2023/08/27 06:43:14;;;;;;;;;;;;;;;27.86;59.99;100520.34;7397340;19;1704;-52
2023/08/27 06:45:42;;;;;;;;;;;;;;;27.84;60.10;100517.00;7396674;19;1392;-52
2023/08/27 06:48:11;;;;;;;;;;;;;;;27.89;59.94;100519.13;7400260;19;1020;-51
2023/08/27 06:50:42;;;;;;;;;;;;;;;27.86;59.99;100520.34;7403769;19;1841;-51
2023/08/27 06:53:10;;;;;;;;;;;;;;;27.88;59.82;100521.03;7404156;19;1862;-51
2023/08/27 06:55:38;;;;;;;;;;;;;;;27.91;59.79;100522.50;7403804;19;1842;-50
2023/08/27 06:58:07;;;;;;;;;;;;;;;27.95;59.71;100515.59;7404334;19;1380;-52
2023/08/27 07:00:35;;;;;;;;;;;;;;;27.91;59.66;100522.50;7403630;19;1328;-52
2023/08/27 07:03:04;;;;;;;;;;;;;;;27.93;59.92;100514.97;7403399;19;1732;-51
2023/08/27 07:05:33;;;;;;;;;;;;;;;27.94;59.93;100512.06;7403002;19;1474;-51
2023/08/27 07:08:05;;;;;;;;;;;;;;;27.93;59.67;100518.56;7405143;19;1024;-51
2023/08/27 07:10:33;;;;;;;;;;;;;;;27.96;59.80;100509.16;7403368;19;1853;-50
2023/08/27 07:13:01;;;;;;;;;;;;;;;27.92;59.73;100510.59;7403183;19;1440;-51
2023/08/27 07:15:30;;;;;;;;;;;;;;;27.88;60.00;100512.88;7402642;19;2003;-51
2023/08/27 07:17:58;;;;;;;;;;;;;;;27.88;59.89;100512.03;7403510;19;1349;-51
2023/08/27 07:20:26;;;;;;;;;;;;;;;27.88;59.99;100522.91;7403245;19;1354;-51
2023/08/27 07:22:55;;;;;;;;;;;;;;;27.91;60.08;100511.63;7403358;19;1668;-51
2023/08/27 07:25:26;;;;;;;;;;;;;;;27.88;59.85;100503.88;7402487;19;1716;-50
2023/08/27 07:27:54;;;;;;;;;;;;;;;27.93;60.14;100514.97;7402520;19;1436;-52
2023/08/27 07:30:22;;;;;;;;;;;;;;;27.83;60.27;100520.75;7401434;19;1847;-51
2023/08/27 07:32:52;;;;;;;;;;;;;;;27.72;60.34;100505.84;7402730;19;1819;-51
2023/08/27 07:35:21;;;;;;;;;;;;;;;27.87;60.05;100491.28;7402942;19;1341;-52
2023/08/27 07:37:49;;;;;;;;;;;;;;;27.93;59.83;100494.09;7403118;19;1432;-51
2023/08/27 07:40:17;;;;;;;;;;;;;;;27.88;60.12;100531.06;7403519;19;1110;-51
2023/08/27 07:42:48;;;;;;;;;;;;;;;27.91;59.98;100489.88;7403337;19;1020;-51
2023/08/27 07:45:16;;;;;;;;;;;;;;;28.03;59.76;100504.56;7402683;19;1870;-51
2023/08/27 07:47:45;;;;;;;;;;;;;;;27.89;60.32;100497.38;7402299;19;2011;-50
2023/08/27 07:50:13;;;;;;;;;;;;;;;27.88;59.92;100495.72;7402288;19;1870;-51
2023/08/27 07:52:41;;;;;;;;;;;;;;;27.91;59.85;100482.59;7399631;19;1871;-51
2023/08/27 07:55:10;;;;;;;;;;;;;;;27.99;59.68;100492.41;7401919;19;1734;-51
2023/08/27 07:57:39;;;;;;;;;;;;;;;28.00;60.01;100485.97;7398884;19;1329;-51
2023/08/27 08:00:10;;;;;;;;;;;;;;;27.91;60.06;100492.59;7400454;19;1776;-51
2023/08/27 08:02:40;;;;;;;;;;;;;;;27.73;60.63;100487.66;7401065;19;1803;-50
2023/08/27 08:05:09;;;;;;;;;;;;;;;27.66;60.80;100482.19;7401020;19;980;-51
2023/08/27 08:07:38;;;;;;;;;;;;;;;27.88;60.35;100488.41;7401555;19;1518;-51
2023/08/27 08:10:06;;;;;;;;;;;;;;;27.86;60.14;100478.75;7400271;19;1421;-51
2023/08/27 08:12:35;;;;;;;;;;;;;;;27.82;60.42;100493.78;7399080;19;1855;-51
2023/08/27 08:15:03;;;;;;;;;;;;;;;27.98;59.75;100487.22;7399516;19;1698;-51
2023/08/27 08:17:34;;;;;;;;;;;;;;;27.82;60.31;100491.91;7398377;19;1662;-51
2023/08/27 08:20:02;;;;;;;;;;;;;;;27.95;60.07;100491.16;7400319;19;1889;-51
2023/08/27 08:22:31;;;;;;;;;;;;;;;27.84;60.08;100489.00;7401768;19;1400;-51
2023/08/27 08:24:59;;;;;;;;;;;;;;;27.98;59.88;100471.72;7402058;19;1110;-52
2023/08/27 08:27:27;;;;;;;;;;;;;;;28.08;59.63;100491.22;7399980;19;1961;-51
2023/08/27 08:29:56;;;;;;;;;;;;;;;28.01;59.65;100482.19;7400420;19;1968;-51
2023/08/27 08:32:25;;;;;;;;;;;;;;;27.89;60.22;100475.66;7399006;19;1842;-51
2023/08/27 08:34:56;;;;;;;;;;;;;;;27.89;60.20;100475.66;7400249;19;1970;-52
2023/08/27 08:37:24;;;;;;;;;;;;;;;28.03;59.75;100471.94;7401692;19;1871;-51
2023/08/27 08:39:53;;;;;;;;;;;;;;;28.02;59.83;100481.16;7401068;19;2163;-51
2023/08/27 08:42:23;;;;;;;;;;;;;;;28.03;59.77;100482.00;7400678;19;1819;-51
2023/08/27 08:44:55;;;;;;;;;;;;;;;28.03;59.77;100466.50;7401148;19;1752;-51
2023/08/27 08:47:24;;;;;;;;;;;;;;;28.01;59.70;100465.88;7401225;19;1716;-51
2023/08/27 08:49:55;;;;;;;;;;;;;;;28.07;59.79;100467.81;7401596;19;1838;-50
2023/08/27 08:52:29;;;;;;;;;;;;;;;28.03;59.82;100487.44;7399066;19;1873;-51
2023/08/27 08:54:57;;;;;;;;;;;;;;;28.03;59.90;100477.38;7400364;19;1778;-51
2023/08/27 08:57:28;;;;;;;;;;;;;;;28.10;59.82;100478.25;7400463;19;1767;-51
2023/08/27 08:59:57;;;;;;;;;;;;;;;28.11;59.88;100465.50;7400709;19;1735;-51
2023/08/27 09:02:26;;;;;;;;;;;;;;;28.09;59.74;100473.03;7401597;19;975;-51
2023/08/27 09:04:55;;;;;;;;;;;;;;;28.04;59.67;100462.75;7401152;19;1038;-51
2023/08/27 09:07:23;;;;;;;;;;;;;;;28.00;60.06;100457.94;7399827;19;1447;-50
2023/08/27 09:09:55;;;;;;;;;;;;;;;28.03;59.77;100466.50;7397849;19;1341;-51
2023/08/27 09:12:24;;;;;;;;;;;;;;;28.08;59.66;100464.03;7396999;19;1866;-51
2023/08/27 09:14:53;;;;;;;;;;;;;;;27.98;59.81;100460.88;7399180;19;1815;-51
2023/08/27 09:17:22;;;;;;;;;;;;;;;28.09;59.90;100468.44;7397643;19;1802;-51
2023/08/27 09:19:51;;;;;;;;;;;;;;;28.08;59.74;100469.47;7397951;19;1727;-51
2023/08/27 09:22:20;;;;;;;;;;;;;;;28.02;59.81;100453.16;7398140;19;1962;-50
2023/08/27 09:24:49;;;;;;;;;;;;;;;28.07;59.80;100439.75;7399142;19;1293;-51
2023/08/27 09:27:21;;;;;;;;;;;;;;;28.05;59.99;100453.56;7399061;19;1333;-51
2023/08/27 09:29:50;;;;;;;;;;;;;;;28.13;59.55;100441.66;7398300;19;1518;-51
2023/08/27 09:32:22;;;;;;;;;;;;;;;28.08;59.47;100455.03;7397841;19;1855;-50
2023/08/27 09:34:51;;;;;;;;;;;;;;;28.10;59.75;100444.81;7399422;19;1106;-51
2023/08/27 09:37:20;;;;;;;;;;;;;;;28.10;59.51;100448.34;7399305;19;1590;-51
2023/08/27 09:39:48;;;;;;;;;;;;;;;28.11;59.65;100450.06;7398704;19;1518;-52
2023/08/27 09:42:17;;;;;;;;;;;;;;;28.06;59.75;100447.09;7398466;19;1550;-50
2023/08/27 09:44:53;;;;;;;;;;;;;;;28.06;59.88;100438.09;7398943;19;1436;-51
2023/08/27 09:47:31;;;;;;;;;;;;;;;28.10;59.90;100437.47;7399440;19;1819;-51
2023/08/27 09:49:59;;;;;;;;;;;;;;;28.09;59.73;100441.25;7398796;19;1866;-50
2023/08/27 09:52:28;;;;;;;;;;;;;;;28.06;59.82;100447.09;7397299;19;1861;-51
2023/08/27 09:54:56;;;;;;;;;;;;;;;27.61;59.96;100359.72;7397525;19;1658;-50
2023/08/27 09:57:25;;;;;;;;;;;;;;;28.08;59.98;100442.28;7397892;19;1732;-50
2023/08/27 09:59:56;;;;;;;;;;;;;;;28.07;59.79;100435.19;7396948;19;1965;-51
2023/08/27 10:02:24;;;;;;;;;;;;;;;28.02;59.94;100431.41;7398452;19;1313;-50
2023/08/27 10:04:50;;;;;;;;;;;;;;;28.06;59.75;100433.50;7399172;19;959;-51
2023/08/27 10:07:19;;;;;;;;;;;;;;;28.06;59.85;100433.50;7397555;19;1843;-51
2023/08/27 10:09:50;;;;;;;;;;;;;;;27.99;60.29;100429.06;7397477;19;1870;-51
2023/08/27 10:12:20;;;;;;;;;;;;;;;28.07;60.10;100428.88;7396817;19;1840;-51
2023/08/27 10:14:48;;;;;;;;;;;;;;;28.12;59.89;100420.97;7396548;19;1747;-52
2023/08/27 10:17:19;;;;;;;;;;;;;;;28.04;60.04;100424.72;7395220;19;1711;-50
2023/08/27 10:19:48;;;;;;;;;;;;;;;28.00;60.09;100426.16;7396535;19;1986;-50
2023/08/27 10:22:17;;;;;;;;;;;;;;;28.00;59.89;100415.28;7400436;19;1420;-51
2023/08/27 10:24:48;;;;;;;;;;;;;;;28.06;59.99;100416.34;7404861;19;1693;-51
2023/08/27 10:27:17;;;;;;;;;;;;;;;28.05;60.17;100401.91;7404593;19;1367;-51
2023/08/27 10:29:46;;;;;;;;;;;;;;;27.99;59.98;100401.91;7405192;19;1334;-51
2023/08/27 10:32:14;;;;;;;;;;;;;;;27.95;60.40;100410.47;7404404;19;1861;-52
2023/08/27 10:34:45;;;;;;;;;;;;;;;28.08;59.90;100400.69;7405720;19;1363;-51
2023/08/27 10:37:14;;;;;;;;;;;;;;;28.03;60.32;100406.72;7404597;19;1854;-50
2023/08/27 10:39:42;;;;;;;;;;;;;;;27.89;60.31;100388.69;7404735;19;1515;-51
2023/08/27 10:42:10;;;;;;;;;;;;;;;27.92;60.72;100393.72;7404076;19;1858;-51
2023/08/27 10:44:39;;;;;;;;;;;;;;;27.87;60.52;100382.59;7404575;19;1419;-50
2023/08/27 10:47:13;;;;;;;;;;;;;;;27.73;60.88;100385.25;7404566;19;1664;-52
2023/08/27 10:49:47;;;;;;;;;;;;;;;28.00;60.39;100374.53;7403776;19;1767;-51
2023/08/27 10:52:20;;;;;;;;;;;;;;;28.10;60.09;100369.53;7402515;19;1948;-51
2023/08/27 10:54:49;;;;;;;;;;;;;;;28.00;60.14;100360.09;7403403;19;1391;-53
2023/08/27 10:57:18;;;;;;;;;;;;;;;28.05;60.06;100350.25;7402565;19;1766;-51
2023/08/27 10:59:46;;;;;;;;;;;;;;;28.02;60.38;100356.13;7404661;19;1400;-52
2023/08/27 11:02:16;;;;;;;;;;;;;;;28.01;60.20;100359.88;7403698;19;1827;-51
2023/08/27 11:04:50;;;;;;;;;;;;;;;28.07;60.07;100356.34;7404479;19;1906;-51
2023/08/27 11:07:19;;;;;;;;;;;;;;;28.07;59.86;100340.06;7403056;19;1606;-51
2023/08/27 11:09:48;;;;;;;;;;;;;;;27.99;60.39;100352.97;7403905;19;1691;-51
2023/08/27 11:12:24;;;;;;;;;;;;;;;27.88;60.50;100338.13;7402156;19;1839;-51
2023/08/27 11:14:52;;;;;;;;;;;;;;;27.90;60.67;100319.72;7403434;19;1717;-51
2023/08/27 11:17:24;;;;;;;;;;;;;;;28.01;60.33;100321.81;7400260;19;1462;-51
2023/08/27 11:19:57;;;;;;;;;;;;;;;27.96;60.70;100318.91;7402992;19;1463;-51
2023/08/27 11:22:25;;;;;;;;;;;;;;;28.05;60.46;100317.66;7401165;19;1779;-52
2023/08/27 11:24:55;;;;;;;;;;;;;;;28.09;60.16;100315.34;7403996;19;1741;-51
2023/08/27 11:27:25;;;;;;;;;;;;;;;28.14;60.01;100326.47;7403060;19;1660;-50
2023/08/27 11:29:55;;;;;;;;;;;;;;;28.16;60.04;100317.03;7403477;19;1676;-51
2023/08/27 11:32:24;;;;;;;;;;;;;;;28.14;59.89;100319.13;7402485;19;1851;-51
2023/08/27 11:34:55;;;;;;;;;;;;;;;28.08;59.86;100314.53;7402827;19;973;-51
2023/08/27 11:37:31;;;;;;;;;;;;;;;28.07;60.18;100314.72;7404778;19;1840;-50
2023/08/27 11:40:00;;;;;;;;;;;;;;;28.06;60.07;100313.06;7403372;19;1881;-51
2023/08/27 11:42:28;;;;;;;;;;;;;;;28.06;60.04;100315.78;7403284;19;1882;-51
2023/08/27 11:44:57;;;;;;;;;;;;;;;28.04;60.40;100310.56;7402153;19;1803;-52
2023/08/27 11:47:26;;;;;;;;;;;;;;;27.98;60.41;100295.06;7402644;19;1483;-51
2023/08/27 11:49:59;;;;;;;;;;;;;;;27.92;60.56;100301.34;7402813;19;1332;-51
2023/08/27 11:52:28;;;;;;;;;;;;;;;27.86;60.69;100289.38;7401683;19;1850;-51
2023/08/27 11:54:56;;;;;;;;;;;;;;;27.92;60.52;100291.28;7402255;19;1788;-51
2023/08/27 11:57:25;;;;;;;;;;;;;;;27.96;60.73;100280.84;7401357;19;1455;-51
2023/08/27 11:59:53;;;;;;;;;;;;;;;28.05;60.34;100287.75;7401465;19;1794;-51
2023/08/27 12:02:22;;;;;;;;;;;;;;;28.07;60.44;100282.97;7402497;19;1819;-50
2023/08/27 12:04:51;;;;;;;;;;;;;;;28.05;60.14;100284.19;7402585;19;1008;-51
2023/08/27 12:07:30;;;;;;;;;;;;;;;28.13;60.09;100287.56;7401467;19;1875;-51
2023/08/27 12:09:58;;;;;;;;;;;;;;;28.10;60.16;100287.97;7402195;19;1700;-53
2023/08/27 12:12:27;;;;;;;;;;;;;;;27.64;60.08;100206.38;7400606;19;1834;-54
2023/08/27 12:14:56;;;;;;;;;;;;;;;28.01;60.21;100272.06;7401299;19;1391;-50
2023/08/27 12:17:24;;;;;;;;;;;;;;;27.93;60.74;100264.94;7397777;19;1563;-52
2023/08/27 12:19:53;;;;;;;;;;;;;;;27.91;60.68;100267.91;7400958;19;1806;-51
2023/08/27 12:22:21;;;;;;;;;;;;;;;28.01;60.59;100262.03;7397358;19;1369;-52
2023/08/27 12:24:52;;;;;;;;;;;;;;;27.92;60.81;100271.44;7399315;19;2022;-51
2023/08/27 12:27:22;;;;;;;;;;;;;;;28.07;60.16;100258.50;7398450;19;1427;-53
2023/08/27 12:29:55;;;;;;;;;;;;;;;27.98;60.76;100267.06;7401359;19;1399;-52
2023/08/27 12:32:25;;;;;;;;;;;;;;;27.99;60.62;100280.41;7401173;19;1844;-51
2023/08/27 12:34:54;;;;;;;;;;;;;;;28.06;60.45;100264.97;7401930;19;1908;-52
2023/08/27 12:37:24;;;;;;;;;;;;;;;28.00;60.46;100254.94;7401471;19;1984;-51
2023/08/27 12:39:55;;;;;;;;;;;;;;;27.98;60.42;100265.19;7401658;19;1873;-52
2023/08/27 12:42:25;;;;;;;;;;;;;;;27.99;60.51;100247.81;7398950;19;2234;-52
2023/08/27 12:44:53;;;;;;;;;;;;;;;27.98;60.67;100262.47;7399796;19;1484;-53
2023/08/27 12:47:21;;;;;;;;;;;;;;;27.97;60.64;100255.34;7398918;19;1557;-52
2023/08/27 12:49:50;;;;;;;;;;;;;;;28.00;60.53;100252.22;7400322;19;1650;-51
2023/08/27 12:52:19;;;;;;;;;;;;;;;27.86;61.00;100240.47;7399218;19;1845;-53
2023/08/27 12:54:47;;;;;;;;;;;;;;;28.00;60.43;100246.78;7399370;19;1365;-52
2023/08/27 12:57:18;;;;;;;;;;;;;;;28.11;60.58;100246.16;7398951;19;1459;-52